Hovedside
METAR-TAF:

METAR-TAF

Lufthavner :

Sibiu, Romania

breddegrad: 45-48N, lengdegrad: 024-09E, høyde over havet: 443 m

Gjeldene værobservasjon

Denne rapporten ble laget for 50 minutter siden, klokken 05:00 UTC
Vind 3 kt fra Nordøst
Temperatur 20°C
Luftfuktighet 83%
Trykk 1012 hPa
Sikt 10 km eller mer
ingen skyer under 1500 m og ingen bygeskyer

METAR: LRSB 220500Z 05003KT CAVOK 20/17 Q1012

Tid: 08:50 (05:50 UTC)

Varsel

Denne rapporten ble laget for 50 minutter siden, klokken 05:00 UTC
Varsel gyldig fra 22. klokken 06 UTC til 23. klokken 06 UTC
Vind 4 kt fra skiftende retning
Sikt 10 km eller mer
Spredte skyer i en høyde av 4000 ft
Midlertidig
fra 22. klokken 12 UTC til 22. klokken 18 UTC
Vind 15 kt fra skiftende retning med vindkast opp mot 25 kt
Sikt: 5000 m
Spredte skyer i en høyde av 4000 ft, Bygeskyer.
Brutte skyer i en høyde av 5000 ft
torden, regn,

TAF: LRSB 220500Z 2206/2306 VRB04KT 9999 SCT040 TEMPO 2212/2218 VRB15G25KT 5000 TSRA SCT040CB BKN050

Værobservasjoner og værvarsel for over 4000 flyplasser (METAR- og TAF-rapporter).

Tilgjengelige stasjoner er representert av de røde og gule prikkene på kartet.

Hold musepekeren over prikken for å se navnet på stasjonen.

Klikk så for å se værobservasjoner og -varsler.

For å forandre kartet kan du klikke på den grønne knappen med svart kryss for å zoome inn, på den grønne knappen med strek for å zoome ut, eller på de grønne pilene for å se tilstøtende kart.


METAR-TAF: